sensor_id;sensor_type;location;lat;lon;timestamp;P1;durP1;ratioP1;P2;durP2;ratioP2
27265;SDS011;14766;51.380;13.762;2022-08-11T00:05:08;3.25;;;2.95;;
27265;SDS011;14766;51.380;13.762;2022-08-11T00:07:44;3.55;;;2.78;;
27265;SDS011;14766;51.380;13.762;2022-08-11T00:10:18;3.28;;;2.97;;
27265;SDS011;14766;51.380;13.762;2022-08-11T00:15:22;3.50;;;3.17;;
27265;SDS011;14766;51.380;13.762;2022-08-11T00:17:55;3.08;;;2.88;;
27265;SDS011;14766;51.380;13.762;2022-08-11T00:20:29;3.58;;;3.28;;
27265;SDS011;14766;51.380;13.762;2022-08-11T00:23:07;4.22;;;3.17;;
27265;SDS011;14766;51.380;13.762;2022-08-11T00:25:37;4.65;;;3.42;;
27265;SDS011;14766;51.380;13.762;2022-08-11T00:28:42;4.57;;;2.95;;
27265;SDS011;14766;51.380;13.762;2022-08-11T00:34:24;3.17;;;2.88;;
27265;SDS011;14766;51.380;13.762;2022-08-11T00:36:55;4.40;;;3.35;;
27265;SDS011;14766;51.380;13.762;2022-08-11T00:39:24;3.85;;;3.25;;
27265;SDS011;14766;51.380;13.762;2022-08-11T00:55:38;4.30;;;3.55;;
27265;SDS011;14766;51.380;13.762;2022-08-11T01:01:21;4.25;;;3.33;;
27265;SDS011;14766;51.380;13.762;2022-08-11T01:20:30;4.13;;;3.55;;
27265;SDS011;14766;51.380;13.762;2022-08-11T01:58:43;3.35;;;3.05;;
27265;SDS011;14766;51.380;13.762;2022-08-11T02:06:57;4.95;;;3.50;;
27265;SDS011;14766;51.380;13.762;2022-08-11T02:12:45;3.43;;;2.97;;
27265;SDS011;14766;51.380;13.762;2022-08-11T02:21:21;3.97;;;3.53;;
27265;SDS011;14766;51.380;13.762;2022-08-11T02:24:18;4.70;;;3.17;;
27265;SDS011;14766;51.380;13.762;2022-08-11T02:27:01;3.60;;;3.20;;
27265;SDS011;14766;51.380;13.762;2022-08-11T02:29:40;3.33;;;3.03;;
27265;SDS011;14766;51.380;13.762;2022-08-11T02:32:17;4.25;;;3.80;;
27265;SDS011;14766;51.380;13.762;2022-08-11T02:35:17;4.00;;;3.58;;
27265;SDS011;14766;51.380;13.762;2022-08-11T02:41:05;4.43;;;3.20;;
27265;SDS011;14766;51.380;13.762;2022-08-11T02:50:37;3.88;;;3.47;;
27265;SDS011;14766;51.380;13.762;2022-08-11T02:53:23;4.68;;;3.67;;
27265;SDS011;14766;51.380;13.762;2022-08-11T02:56:05;4.43;;;3.45;;
27265;SDS011;14766;51.380;13.762;2022-08-11T03:10:30;6.63;;;3.60;;
27265;SDS011;14766;51.380;13.762;2022-08-11T03:13:16;4.88;;;3.65;;
27265;SDS011;14766;51.380;13.762;2022-08-11T03:32:59;3.97;;;3.50;;
27265;SDS011;14766;51.380;13.762;2022-08-11T03:41:35;4.88;;;3.72;;
27265;SDS011;14766;51.380;13.762;2022-08-11T03:50:31;5.40;;;3.78;;
27265;SDS011;14766;51.380;13.762;2022-08-11T03:53:32;4.50;;;3.60;;
27265;SDS011;14766;51.380;13.762;2022-08-11T04:05:12;3.85;;;3.47;;
27265;SDS011;14766;51.380;13.762;2022-08-11T04:17:31;4.28;;;3.88;;
27265;SDS011;14766;51.380;13.762;2022-08-11T04:23:38;6.25;;;3.50;;
27265;SDS011;14766;51.380;13.762;2022-08-11T04:26:56;4.70;;;3.65;;
27265;SDS011;14766;51.380;13.762;2022-08-11T04:54:03;3.40;;;3.10;;
27265;SDS011;14766;51.380;13.762;2022-08-11T04:57:04;3.70;;;3.38;;
27265;SDS011;14766;51.380;13.762;2022-08-11T05:00:05;4.70;;;3.58;;
27265;SDS011;14766;51.380;13.762;2022-08-11T05:13:44;4.95;;;3.78;;
27265;SDS011;14766;51.380;13.762;2022-08-11T05:16:32;5.22;;;3.80;;
27265;SDS011;14766;51.380;13.762;2022-08-11T05:19:42;4.38;;;3.97;;
27265;SDS011;14766;51.380;13.762;2022-08-11T05:22:30;4.13;;;3.10;;
27265;SDS011;14766;51.380;13.762;2022-08-11T05:25:28;5.47;;;3.90;;
27265;SDS011;14766;51.380;13.762;2022-08-11T05:28:37;3.85;;;3.25;;
27265;SDS011;14766;51.380;13.762;2022-08-11T05:31:48;4.82;;;3.40;;
27265;SDS011;14766;51.380;13.762;2022-08-11T05:34:43;4.85;;;3.30;;
27265;SDS011;14766;51.380;13.762;2022-08-11T05:37:43;3.80;;;3.20;;
27265;SDS011;14766;51.380;13.762;2022-08-11T05:40:32;3.65;;;3.17;;
27265;SDS011;14766;51.380;13.762;2022-08-11T05:43:25;3.55;;;2.90;;
27265;SDS011;14766;51.380;13.762;2022-08-11T05:46:37;3.90;;;3.35;;
27265;SDS011;14766;51.380;13.762;2022-08-11T05:49:28;3.30;;;3.00;;
27265;SDS011;14766;51.380;13.762;2022-08-11T05:52:23;3.25;;;2.95;;
27265;SDS011;14766;51.380;13.762;2022-08-11T05:55:14;3.50;;;3.13;;
27265;SDS011;14766;51.380;13.762;2022-08-11T05:58:21;3.05;;;2.75;;
27265;SDS011;14766;51.380;13.762;2022-08-11T06:00:48;3.17;;;2.92;;
27265;SDS011;14766;51.380;13.762;2022-08-11T06:03:19;3.50;;;3.20;;
27265;SDS011;14766;51.380;13.762;2022-08-11T06:05:52;3.28;;;2.92;;
27265;SDS011;14766;51.380;13.762;2022-08-11T06:08:26;3.42;;;3.13;;
27265;SDS011;14766;51.380;13.762;2022-08-11T06:10:59;3.28;;;2.90;;
27265;SDS011;14766;51.380;13.762;2022-08-11T06:13:31;3.60;;;3.20;;
27265;SDS011;14766;51.380;13.762;2022-08-11T06:15:59;3.10;;;2.80;;
27265;SDS011;14766;51.380;13.762;2022-08-11T06:18:32;3.35;;;2.90;;
27265;SDS011;14766;51.380;13.762;2022-08-11T06:21:01;3.38;;;2.80;;
27265;SDS011;14766;51.380;13.762;2022-08-11T06:23:37;3.60;;;2.58;;
27265;SDS011;14766;51.380;13.762;2022-08-11T06:26:08;3.15;;;2.72;;
27265;SDS011;14766;51.380;13.762;2022-08-11T06:28:37;4.60;;;2.40;;
27265;SDS011;14766;51.380;13.762;2022-08-11T06:31:14;2.95;;;2.53;;
27265;SDS011;14766;51.380;13.762;2022-08-11T06:36:15;3.67;;;2.60;;
27265;SDS011;14766;51.380;13.762;2022-08-11T06:41:45;3.03;;;2.72;;
27265;SDS011;14766;51.380;13.762;2022-08-11T06:44:28;2.83;;;2.63;;
27265;SDS011;14766;51.380;13.762;2022-08-11T06:47:08;3.17;;;2.55;;
27265;SDS011;14766;51.380;13.762;2022-08-11T06:49:46;3.42;;;2.58;;
27265;SDS011;14766;51.380;13.762;2022-08-11T06:52:36;4.50;;;2.50;;
27265;SDS011;14766;51.380;13.762;2022-08-11T06:55:07;3.63;;;2.40;;
27265;SDS011;14766;51.380;13.762;2022-08-11T06:58:29;3.30;;;2.55;;
27265;SDS011;14766;51.380;13.762;2022-08-11T07:04:26;2.60;;;2.22;;
27265;SDS011;14766;51.380;13.762;2022-08-11T07:12:51;2.50;;;2.28;;
27265;SDS011;14766;51.380;13.762;2022-08-11T07:15:59;2.40;;;2.20;;
27265;SDS011;14766;51.380;13.762;2022-08-11T07:18:39;2.00;;;1.80;;
27265;SDS011;14766;51.380;13.762;2022-08-11T07:21:30;2.42;;;2.22;;
27265;SDS011;14766;51.380;13.762;2022-08-11T07:24:29;2.63;;;2.10;;
27265;SDS011;14766;51.380;13.762;2022-08-11T07:27:34;2.45;;;2.10;;
27265;SDS011;14766;51.380;13.762;2022-08-11T07:30:26;2.30;;;1.85;;
27265;SDS011;14766;51.380;13.762;2022-08-11T07:32:55;2.25;;;2.05;;
27265;SDS011;14766;51.380;13.762;2022-08-11T07:35:47;2.63;;;2.20;;
27265;SDS011;14766;51.380;13.762;2022-08-11T07:38:19;2.40;;;1.80;;
27265;SDS011;14766;51.380;13.762;2022-08-11T07:40:50;3.65;;;1.67;;
27265;SDS011;14766;51.380;13.762;2022-08-11T07:43:18;3.17;;;1.90;;
27265;SDS011;14766;51.380;13.762;2022-08-11T07:45:45;3.70;;;1.80;;
27265;SDS011;14766;51.380;13.762;2022-08-11T07:48:48;1.80;;;1.70;;
27265;SDS011;14766;51.380;13.762;2022-08-11T07:51:34;1.85;;;1.73;;
27265;SDS011;14766;51.380;13.762;2022-08-11T07:54:21;2.75;;;1.50;;
27265;SDS011;14766;51.380;13.762;2022-08-11T07:56:53;2.40;;;1.80;;
27265;SDS011;14766;51.380;13.762;2022-08-11T07:59:41;4.65;;;1.95;;
27265;SDS011;14766;51.380;13.762;2022-08-11T08:02:41;2.92;;;2.22;;
27265;SDS011;14766;51.380;13.762;2022-08-11T08:05:27;3.42;;;2.20;;
27265;SDS011;14766;51.380;13.762;2022-08-11T08:08:15;3.40;;;2.50;;
27265;SDS011;14766;51.380;13.762;2022-08-11T08:11:02;3.28;;;2.75;;
27265;SDS011;14766;51.380;13.762;2022-08-11T08:13:53;3.80;;;3.20;;
27265;SDS011;14766;51.380;13.762;2022-08-11T08:16:39;4.03;;;3.05;;
27265;SDS011;14766;51.380;13.762;2022-08-11T08:19:26;7.18;;;2.83;;
27265;SDS011;14766;51.380;13.762;2022-08-11T08:21:54;4.70;;;3.50;;
27265;SDS011;14766;51.380;13.762;2022-08-11T08:24:42;5.55;;;2.60;;
27265;SDS011;14766;51.380;13.762;2022-08-11T08:27:10;2.83;;;2.35;;
27265;SDS011;14766;51.380;13.762;2022-08-11T08:29:41;2.70;;;2.10;;
27265;SDS011;14766;51.380;13.762;2022-08-11T08:32:29;4.25;;;1.88;;
27265;SDS011;14766;51.380;13.762;2022-08-11T08:34:57;3.08;;;2.35;;
27265;SDS011;14766;51.380;13.762;2022-08-11T08:37:25;3.78;;;2.20;;
27265;SDS011;14766;51.380;13.762;2022-08-11T08:40:13;2.25;;;1.85;;
27265;SDS011;14766;51.380;13.762;2022-08-11T08:42:43;2.55;;;1.83;;
27265;SDS011;14766;51.380;13.762;2022-08-11T08:45:16;2.63;;;2.00;;
27265;SDS011;14766;51.380;13.762;2022-08-11T08:47:45;3.20;;;2.00;;
27265;SDS011;14766;51.380;13.762;2022-08-11T08:50:35;2.17;;;1.70;;
27265;SDS011;14766;51.380;13.762;2022-08-11T08:53:25;2.92;;;1.98;;
27265;SDS011;14766;51.380;13.762;2022-08-11T08:55:57;1.90;;;1.70;;
27265;SDS011;14766;51.380;13.762;2022-08-11T08:58:26;3.20;;;1.70;;
27265;SDS011;14766;51.380;13.762;2022-08-11T09:00:55;2.15;;;1.70;;
27265;SDS011;14766;51.380;13.762;2022-08-11T09:03:25;3.55;;;1.90;;
27265;SDS011;14766;51.380;13.762;2022-08-11T09:06:13;1.65;;;1.55;;
27265;SDS011;14766;51.380;13.762;2022-08-11T09:08:42;2.03;;;1.60;;
27265;SDS011;14766;51.380;13.762;2022-08-11T09:11:10;3.08;;;2.05;;
27265;SDS011;14766;51.380;13.762;2022-08-11T09:13:59;2.45;;;1.70;;
27265;SDS011;14766;51.380;13.762;2022-08-11T09:16:31;2.13;;;1.65;;
27265;SDS011;14766;51.380;13.762;2022-08-11T09:19:00;1.67;;;1.38;;
27265;SDS011;14766;51.380;13.762;2022-08-11T09:21:28;1.70;;;1.60;;
27265;SDS011;14766;51.380;13.762;2022-08-11T09:24:14;2.00;;;1.80;;
27265;SDS011;14766;51.380;13.762;2022-08-11T09:27:05;3.25;;;1.90;;
27265;SDS011;14766;51.380;13.762;2022-08-11T09:29:34;2.30;;;1.50;;
27265;SDS011;14766;51.380;13.762;2022-08-11T09:32:03;2.28;;;1.60;;
27265;SDS011;14766;51.380;13.762;2022-08-11T09:34:34;3.40;;;1.70;;
27265;SDS011;14766;51.380;13.762;2022-08-11T09:37:02;1.73;;;1.63;;
27265;SDS011;14766;51.380;13.762;2022-08-11T09:40:24;4.97;;;1.90;;
27265;SDS011;14766;51.380;13.762;2022-08-11T09:42:56;2.00;;;1.50;;
27265;SDS011;14766;51.380;13.762;2022-08-11T09:45:46;2.60;;;2.00;;
27265;SDS011;14766;51.380;13.762;2022-08-11T09:48:18;3.03;;;1.58;;
27265;SDS011;14766;51.380;13.762;2022-08-11T09:50:53;3.20;;;1.63;;
27265;SDS011;14766;51.380;13.762;2022-08-11T09:53:21;1.90;;;1.60;;
27265;SDS011;14766;51.380;13.762;2022-08-11T09:56:10;1.73;;;1.63;;
27265;SDS011;14766;51.380;13.762;2022-08-11T09:59:00;2.00;;;1.50;;
27265;SDS011;14766;51.380;13.762;2022-08-11T10:01:31;2.50;;;1.83;;
27265;SDS011;14766;51.380;13.762;2022-08-11T10:06:41;1.88;;;1.77;;
27265;SDS011;14766;51.380;13.762;2022-08-11T10:09:41;2.35;;;1.58;;
27265;SDS011;14766;51.380;13.762;2022-08-11T10:12:10;2.20;;;2.00;;
27265;SDS011;14766;51.380;13.762;2022-08-11T10:14:48;2.53;;;1.98;;
27265;SDS011;14766;51.380;13.762;2022-08-11T10:17:40;4.18;;;1.50;;
27265;SDS011;14766;51.380;13.762;2022-08-11T10:20:29;2.13;;;1.70;;
27265;SDS011;14766;51.380;13.762;2022-08-11T10:23:00;1.85;;;1.60;;
27265;SDS011;14766;51.380;13.762;2022-08-11T10:25:47;2.17;;;1.98;;
27265;SDS011;14766;51.380;13.762;2022-08-11T10:28:34;2.88;;;1.98;;
27265;SDS011;14766;51.380;13.762;2022-08-11T10:31:22;3.28;;;1.75;;
27265;SDS011;14766;51.380;13.762;2022-08-11T10:34:27;2.00;;;1.63;;
27265;SDS011;14766;51.380;13.762;2022-08-11T10:36:58;2.55;;;2.20;;
27265;SDS011;14766;51.380;13.762;2022-08-11T10:39:29;2.45;;;1.80;;
27265;SDS011;14766;51.380;13.762;2022-08-11T10:41:57;1.95;;;1.60;;
27265;SDS011;14766;51.380;13.762;2022-08-11T10:45:04;2.55;;;1.60;;
27265;SDS011;14766;51.380;13.762;2022-08-11T10:47:56;3.75;;;1.55;;
27265;SDS011;14766;51.380;13.762;2022-08-11T10:50:24;2.85;;;1.58;;
27265;SDS011;14766;51.380;13.762;2022-08-11T10:53:11;2.55;;;1.60;;
27265;SDS011;14766;51.380;13.762;2022-08-11T10:55:59;1.70;;;1.60;;
27265;SDS011;14766;51.380;13.762;2022-08-11T10:58:46;1.75;;;1.60;;
27265;SDS011;14766;51.380;13.762;2022-08-11T11:01:15;2.22;;;1.77;;
27265;SDS011;14766;51.380;13.762;2022-08-11T11:03:57;1.83;;;1.45;;
27265;SDS011;14766;51.380;13.762;2022-08-11T11:09:20;2.20;;;1.60;;
27265;SDS011;14766;51.380;13.762;2022-08-11T11:12:00;2.97;;;1.67;;
27265;SDS011;14766;51.380;13.762;2022-08-11T11:15:05;3.10;;;1.35;;
27265;SDS011;14766;51.380;13.762;2022-08-11T11:17:54;2.80;;;1.50;;
27265;SDS011;14766;51.380;13.762;2022-08-11T11:37:19;3.00;;;1.48;;
27265;SDS011;14766;51.380;13.762;2022-08-11T11:39:48;1.52;;;1.30;;
27265;SDS011;14766;51.380;13.762;2022-08-11T11:42:16;2.88;;;1.25;;
27265;SDS011;14766;51.380;13.762;2022-08-11T11:44:44;1.35;;;1.23;;
27265;SDS011;14766;51.380;13.762;2022-08-11T11:47:13;1.67;;;1.40;;
27265;SDS011;14766;51.380;13.762;2022-08-11T11:49:42;2.30;;;1.50;;
27265;SDS011;14766;51.380;13.762;2022-08-11T11:52:13;1.20;;;1.10;;
27265;SDS011;14766;51.380;13.762;2022-08-11T11:54:45;1.65;;;1.30;;
27265;SDS011;14766;51.380;13.762;2022-08-11T11:57:17;2.28;;;1.20;;
27265;SDS011;14766;51.380;13.762;2022-08-11T12:00:05;1.45;;;1.05;;
27265;SDS011;14766;51.380;13.762;2022-08-11T12:03:00;1.42;;;1.27;;
27265;SDS011;14766;51.380;13.762;2022-08-11T12:05:32;1.45;;;1.30;;
27265;SDS011;14766;51.380;13.762;2022-08-11T12:08:02;1.67;;;1.40;;
27265;SDS011;14766;51.380;13.762;2022-08-11T12:11:02;1.85;;;1.30;;
27265;SDS011;14766;51.380;13.762;2022-08-11T12:13:51;1.70;;;1.30;;
27265;SDS011;14766;51.380;13.762;2022-08-11T12:16:19;2.13;;;1.30;;
27265;SDS011;14766;51.380;13.762;2022-08-11T12:19:05;1.63;;;1.33;;
27265;SDS011;14766;51.380;13.762;2022-08-11T12:22:01;3.92;;;1.27;;
27265;SDS011;14766;51.380;13.762;2022-08-11T12:24:48;1.58;;;1.48;;
27265;SDS011;14766;51.380;13.762;2022-08-11T12:27:38;1.40;;;1.20;;
27265;SDS011;14766;51.380;13.762;2022-08-11T12:30:06;2.47;;;1.02;;
27265;SDS011;14766;51.380;13.762;2022-08-11T12:32:35;1.33;;;1.20;;
27265;SDS011;14766;51.380;13.762;2022-08-11T12:35:05;1.20;;;1.00;;
27265;SDS011;14766;51.380;13.762;2022-08-11T12:37:38;1.98;;;1.08;;
27265;SDS011;14766;51.380;13.762;2022-08-11T12:40:15;1.10;;;1.00;;
27265;SDS011;14766;51.380;13.762;2022-08-11T12:43:26;1.20;;;1.10;;
27265;SDS011;14766;51.380;13.762;2022-08-11T12:46:23;1.05;;;0.90;;
27265;SDS011;14766;51.380;13.762;2022-08-11T12:48:58;0.95;;;0.95;;
27265;SDS011;14766;51.380;13.762;2022-08-11T12:51:52;1.10;;;1.00;;
27265;SDS011;14766;51.380;13.762;2022-08-11T12:57:16;2.70;;;1.00;;
27265;SDS011;14766;51.380;13.762;2022-08-11T13:00:26;1.88;;;1.00;;
27265;SDS011;14766;51.380;13.762;2022-08-11T13:03:13;1.45;;;0.90;;
27265;SDS011;14766;51.380;13.762;2022-08-11T13:06:03;2.03;;;1.10;;
27265;SDS011;14766;51.380;13.762;2022-08-11T13:08:32;1.02;;;0.73;;
27265;SDS011;14766;51.380;13.762;2022-08-11T13:11:01;2.58;;;1.00;;
27265;SDS011;14766;51.380;13.762;2022-08-11T13:13:47;1.13;;;1.00;;
27265;SDS011;14766;51.380;13.762;2022-08-11T13:16:30;1.45;;;0.95;;
27265;SDS011;14766;51.380;13.762;2022-08-11T13:19:22;1.27;;;1.00;;
27265;SDS011;14766;51.380;13.762;2022-08-11T13:21:49;1.90;;;1.00;;
27265;SDS011;14766;51.380;13.762;2022-08-11T13:24:19;1.73;;;0.93;;
27265;SDS011;14766;51.380;13.762;2022-08-11T13:26:49;1.25;;;0.90;;
27265;SDS011;14766;51.380;13.762;2022-08-11T13:29:17;1.05;;;0.95;;
27265;SDS011;14766;51.380;13.762;2022-08-11T13:31:53;3.15;;;1.10;;
27265;SDS011;14766;51.380;13.762;2022-08-11T13:34:24;1.35;;;0.93;;
27265;SDS011;14766;51.380;13.762;2022-08-11T13:36:53;0.98;;;0.82;;
27265;SDS011;14766;51.380;13.762;2022-08-11T13:39:24;1.33;;;0.90;;
27265;SDS011;14766;51.380;13.762;2022-08-11T13:41:56;1.00;;;0.90;;
27265;SDS011;14766;51.380;13.762;2022-08-11T13:44:26;1.08;;;0.90;;
27265;SDS011;14766;51.380;13.762;2022-08-11T13:46:57;2.78;;;1.10;;
27265;SDS011;14766;51.380;13.762;2022-08-11T13:49:35;1.20;;;0.82;;
27265;SDS011;14766;51.380;13.762;2022-08-11T13:52:07;1.13;;;1.00;;
27265;SDS011;14766;51.380;13.762;2022-08-11T13:54:38;1.10;;;1.00;;
27265;SDS011;14766;51.380;13.762;2022-08-11T13:57:07;1.77;;;1.17;;
27265;SDS011;14766;51.380;13.762;2022-08-11T13:59:58;1.55;;;1.30;;
27265;SDS011;14766;51.380;13.762;2022-08-11T14:02:53;1.38;;;1.10;;
27265;SDS011;14766;51.380;13.762;2022-08-11T14:05:27;2.10;;;1.40;;
27265;SDS011;14766;51.380;13.762;2022-08-11T14:08:01;1.88;;;1.20;;
27265;SDS011;14766;51.380;13.762;2022-08-11T14:10:30;2.08;;;1.33;;
27265;SDS011;14766;51.380;13.762;2022-08-11T14:13:01;1.20;;;1.10;;
27265;SDS011;14766;51.380;13.762;2022-08-11T14:15:53;1.23;;;1.13;;
27265;SDS011;14766;51.380;13.762;2022-08-11T14:18:28;1.77;;;1.20;;
27265;SDS011;14766;51.380;13.762;2022-08-11T14:20:59;1.40;;;1.08;;
27265;SDS011;14766;51.380;13.762;2022-08-11T14:23:51;1.35;;;0.90;;
27265;SDS011;14766;51.380;13.762;2022-08-11T14:26:26;1.23;;;1.13;;
27265;SDS011;14766;51.380;13.762;2022-08-11T14:29:00;1.48;;;1.00;;
27265;SDS011;14766;51.380;13.762;2022-08-11T14:31:33;1.40;;;1.25;;
27265;SDS011;14766;51.380;13.762;2022-08-11T14:34:04;1.10;;;1.00;;
27265;SDS011;14766;51.380;13.762;2022-08-11T14:36:41;4.25;;;1.30;;
27265;SDS011;14766;51.380;13.762;2022-08-11T14:39:11;2.75;;;1.80;;
27265;SDS011;14766;51.380;13.762;2022-08-11T14:41:44;1.63;;;1.38;;
27265;SDS011;14766;51.380;13.762;2022-08-11T14:44:40;1.60;;;1.27;;
27265;SDS011;14766;51.380;13.762;2022-08-11T14:47:49;1.35;;;1.08;;
27265;SDS011;14766;51.380;13.762;2022-08-11T14:50:20;1.08;;;0.98;;
27265;SDS011;14766;51.380;13.762;2022-08-11T14:55:25;2.00;;;1.13;;
27265;SDS011;14766;51.380;13.762;2022-08-11T14:58:17;1.20;;;1.02;;
27265;SDS011;14766;51.380;13.762;2022-08-11T15:00:46;1.60;;;0.95;;
27265;SDS011;14766;51.380;13.762;2022-08-11T15:03:23;1.30;;;1.10;;
27265;SDS011;14766;51.380;13.762;2022-08-11T15:05:55;1.45;;;1.35;;
27265;SDS011;14766;51.380;13.762;2022-08-11T15:08:31;1.52;;;1.33;;
27265;SDS011;14766;51.380;13.762;2022-08-11T15:11:18;2.28;;;1.27;;
27265;SDS011;14766;51.380;13.762;2022-08-11T15:14:13;1.13;;;1.02;;
27265;SDS011;14766;51.380;13.762;2022-08-11T15:17:05;1.90;;;1.20;;
27265;SDS011;14766;51.380;13.762;2022-08-11T15:19:38;1.83;;;1.02;;
27265;SDS011;14766;51.380;13.762;2022-08-11T15:22:30;1.23;;;1.08;;
27265;SDS011;14766;51.380;13.762;2022-08-11T15:25:17;1.45;;;1.35;;
27265;SDS011;14766;51.380;13.762;2022-08-11T15:27:47;1.30;;;1.20;;
27265;SDS011;14766;51.380;13.762;2022-08-11T15:30:35;1.20;;;1.10;;
27265;SDS011;14766;51.380;13.762;2022-08-11T15:33:22;1.38;;;1.20;;
27265;SDS011;14766;51.380;13.762;2022-08-11T15:36:12;1.45;;;1.20;;
27265;SDS011;14766;51.380;13.762;2022-08-11T15:39:05;0.95;;;0.95;;
27265;SDS011;14766;51.380;13.762;2022-08-11T15:41:57;2.33;;;1.00;;
27265;SDS011;14766;51.380;13.762;2022-08-11T15:44:49;3.17;;;1.00;;
27265;SDS011;14766;51.380;13.762;2022-08-11T15:47:50;1.08;;;0.85;;
27265;SDS011;14766;51.380;13.762;2022-08-11T15:50:32;1.85;;;1.00;;
27265;SDS011;14766;51.380;13.762;2022-08-11T15:53:04;1.52;;;1.13;;
27265;SDS011;14766;51.380;13.762;2022-08-11T15:55:41;2.30;;;1.17;;
27265;SDS011;14766;51.380;13.762;2022-08-11T15:58:11;1.60;;;1.00;;
27265;SDS011;14766;51.380;13.762;2022-08-11T16:00:59;1.58;;;1.08;;
27265;SDS011;14766;51.380;13.762;2022-08-11T16:03:48;1.30;;;1.10;;
27265;SDS011;14766;51.380;13.762;2022-08-11T16:12:15;1.73;;;1.02;;
27265;SDS011;14766;51.380;13.762;2022-08-11T16:15:05;1.98;;;0.90;;
27265;SDS011;14766;51.380;13.762;2022-08-11T16:17:58;1.35;;;0.90;;
27265;SDS011;14766;51.380;13.762;2022-08-11T16:20:30;2.88;;;0.98;;
27265;SDS011;14766;51.380;13.762;2022-08-11T16:22:59;1.20;;;1.10;;
27265;SDS011;14766;51.380;13.762;2022-08-11T16:25:32;1.52;;;1.35;;
27265;SDS011;14766;51.380;13.762;2022-08-11T16:28:20;2.30;;;1.20;;
27265;SDS011;14766;51.380;13.762;2022-08-11T16:30:50;1.52;;;1.42;;
27265;SDS011;14766;51.380;13.762;2022-08-11T16:33:19;2.70;;;1.50;;
27265;SDS011;14766;51.380;13.762;2022-08-11T16:36:09;1.73;;;1.60;;
27265;SDS011;14766;51.380;13.762;2022-08-11T16:38:59;2.17;;;1.30;;
27265;SDS011;14766;51.380;13.762;2022-08-11T16:41:29;1.35;;;1.15;;
27265;SDS011;14766;51.380;13.762;2022-08-11T16:44:18;1.40;;;1.08;;
27265;SDS011;14766;51.380;13.762;2022-08-11T16:47:06;2.55;;;1.85;;
27265;SDS011;14766;51.380;13.762;2022-08-11T16:49:40;4.22;;;2.20;;
27265;SDS011;14766;51.380;13.762;2022-08-11T16:52:18;3.10;;;2.20;;
27265;SDS011;14766;51.380;13.762;2022-08-11T16:54:47;2.53;;;2.33;;
27265;SDS011;14766;51.380;13.762;2022-08-11T16:57:27;4.55;;;2.78;;
27265;SDS011;14766;51.380;13.762;2022-08-11T17:00:17;3.20;;;2.45;;
27265;SDS011;14766;51.380;13.762;2022-08-11T17:02:46;3.58;;;2.70;;
27265;SDS011;14766;51.380;13.762;2022-08-11T17:05:35;4.70;;;2.80;;
27265;SDS011;14766;51.380;13.762;2022-08-11T17:08:31;2.75;;;2.47;;
27265;SDS011;14766;51.380;13.762;2022-08-11T17:11:28;3.53;;;2.03;;
27265;SDS011;14766;51.380;13.762;2022-08-11T17:14:21;3.47;;;2.25;;
27265;SDS011;14766;51.380;13.762;2022-08-11T17:17:02;2.75;;;2.25;;
27265;SDS011;14766;51.380;13.762;2022-08-11T17:19:32;2.95;;;2.13;;
27265;SDS011;14766;51.380;13.762;2022-08-11T17:22:24;3.03;;;2.50;;
27265;SDS011;14766;51.380;13.762;2022-08-11T17:25:12;3.03;;;2.20;;
27265;SDS011;14766;51.380;13.762;2022-08-11T17:27:41;3.58;;;2.78;;
27265;SDS011;14766;51.380;13.762;2022-08-11T17:30:09;4.55;;;2.95;;
27265;SDS011;14766;51.380;13.762;2022-08-11T17:32:38;3.10;;;2.53;;
27265;SDS011;14766;51.380;13.762;2022-08-11T17:35:33;3.80;;;2.38;;
27265;SDS011;14766;51.380;13.762;2022-08-11T17:40:38;2.63;;;2.40;;
27265;SDS011;14766;51.380;13.762;2022-08-11T17:43:51;2.05;;;1.75;;
27265;SDS011;14766;51.380;13.762;2022-08-11T17:46:39;2.47;;;1.80;;
27265;SDS011;14766;51.380;13.762;2022-08-11T17:49:31;2.20;;;1.70;;
27265;SDS011;14766;51.380;13.762;2022-08-11T17:52:06;2.38;;;1.70;;
27265;SDS011;14766;51.380;13.762;2022-08-11T17:55:00;1.88;;;1.48;;
27265;SDS011;14766;51.380;13.762;2022-08-11T17:58:07;3.15;;;2.03;;
27265;SDS011;14766;51.380;13.762;2022-08-11T18:00:53;4.53;;;3.40;;
27265;SDS011;14766;51.380;13.762;2022-08-11T18:03:34;3.95;;;3.13;;
27265;SDS011;14766;51.380;13.762;2022-08-11T18:06:07;3.45;;;2.50;;
27265;SDS011;14766;51.380;13.762;2022-08-11T18:08:40;1.50;;;1.40;;
27265;SDS011;14766;51.380;13.762;2022-08-11T18:11:29;1.27;;;1.00;;
27265;SDS011;14766;51.380;13.762;2022-08-11T18:14:37;1.63;;;1.05;;
27265;SDS011;14766;51.380;13.762;2022-08-11T18:17:27;3.42;;;1.15;;
27265;SDS011;14766;51.380;13.762;2022-08-11T18:20:12;1.30;;;1.20;;
27265;SDS011;14766;51.380;13.762;2022-08-11T18:22:58;1.95;;;1.10;;
27265;SDS011;14766;51.380;13.762;2022-08-11T18:26:08;1.58;;;1.20;;
27265;SDS011;14766;51.380;13.762;2022-08-11T18:28:56;1.23;;;1.13;;
27265;SDS011;14766;51.380;13.762;2022-08-11T18:31:47;2.95;;;1.30;;
27265;SDS011;14766;51.380;13.762;2022-08-11T18:34:36;1.58;;;1.48;;
27265;SDS011;14766;51.380;13.762;2022-08-11T18:37:26;1.92;;;1.35;;
27265;SDS011;14766;51.380;13.762;2022-08-11T18:40:25;2.05;;;1.60;;
27265;SDS011;14766;51.380;13.762;2022-08-11T18:43:13;2.97;;;1.48;;
27265;SDS011;14766;51.380;13.762;2022-08-11T18:46:05;3.45;;;1.55;;
27265;SDS011;14766;51.380;13.762;2022-08-11T18:48:54;3.28;;;1.20;;
27265;SDS011;14766;51.380;13.762;2022-08-11T18:51:49;1.52;;;1.38;;
27265;SDS011;14766;51.380;13.762;2022-08-11T18:54:39;2.30;;;1.50;;
27265;SDS011;14766;51.380;13.762;2022-08-11T18:57:27;1.98;;;1.33;;
27265;SDS011;14766;51.380;13.762;2022-08-11T19:00:19;1.98;;;1.20;;
27265;SDS011;14766;51.380;13.762;2022-08-11T19:03:13;2.13;;;1.30;;
27265;SDS011;14766;51.380;13.762;2022-08-11T19:06:14;2.22;;;1.50;;
27265;SDS011;14766;51.380;13.762;2022-08-11T19:09:07;1.35;;;1.13;;
27265;SDS011;14766;51.380;13.762;2022-08-11T19:11:57;2.08;;;1.45;;
27265;SDS011;14766;51.380;13.762;2022-08-11T19:14:46;1.70;;;1.60;;
27265;SDS011;14766;51.380;13.762;2022-08-11T19:17:37;2.42;;;1.38;;
27265;SDS011;14766;51.380;13.762;2022-08-11T19:20:24;1.63;;;1.40;;
27265;SDS011;14766;51.380;13.762;2022-08-11T19:23:15;2.67;;;1.60;;
27265;SDS011;14766;51.380;13.762;2022-08-11T19:26:23;2.60;;;1.40;;
27265;SDS011;14766;51.380;13.762;2022-08-11T19:29:18;1.77;;;1.42;;
27265;SDS011;14766;51.380;13.762;2022-08-11T19:32:33;4.13;;;1.80;;
27265;SDS011;14766;51.380;13.762;2022-08-11T19:35:24;3.72;;;1.67;;
27265;SDS011;14766;51.380;13.762;2022-08-11T19:38:11;3.05;;;1.92;;
27265;SDS011;14766;51.380;13.762;2022-08-11T19:40:58;4.38;;;2.00;;
27265;SDS011;14766;51.380;13.762;2022-08-11T19:44:05;4.95;;;1.88;;
27265;SDS011;14766;51.380;13.762;2022-08-11T19:46:53;4.72;;;1.85;;
27265;SDS011;14766;51.380;13.762;2022-08-11T19:49:40;3.05;;;1.83;;
27265;SDS011;14766;51.380;13.762;2022-08-11T19:52:28;6.47;;;2.70;;
27265;SDS011;14766;51.380;13.762;2022-08-11T19:55:15;4.03;;;1.92;;
27265;SDS011;14766;51.380;13.762;2022-08-11T19:58:06;5.32;;;2.63;;
27265;SDS011;14766;51.380;13.762;2022-08-11T20:03:37;2.85;;;1.85;;
27265;SDS011;14766;51.380;13.762;2022-08-11T20:06:23;4.45;;;2.80;;
27265;SDS011;14766;51.380;13.762;2022-08-11T20:09:11;5.38;;;2.50;;
27265;SDS011;14766;51.380;13.762;2022-08-11T20:12:20;4.97;;;2.38;;
27265;SDS011;14766;51.380;13.762;2022-08-11T20:15:07;4.10;;;2.53;;
27265;SDS011;14766;51.380;13.762;2022-08-11T20:17:54;3.38;;;2.15;;
27265;SDS011;14766;51.380;13.762;2022-08-11T20:20:41;12.57;;;2.90;;